Terminal Aerodrome Forecast
Issued by NWS

Home | Current Version | Previous Version | Graphics & Text | Print | Product List | Glossary On
Versions: 1 2 3 4 5 6 7 8 9 10 11 12 13 14 15 16 17 18 19 20 21 22 23 24
000
FTUS41 KCLE 070800 AAA
TAFFDY
TAF AMD
KFDY 070859Z 0709/0806 22014G20KT P6SM SCT060 BKN200
     FM071500 23015G25KT P6SM VCTS BKN045CB
     FM072200 25012KT P6SM SCT045 BKN250
     FM080200 23005KT P6SM SCT040 BKN250=

USA.gov is the U.S. government's official web portal to all federal, state and local government web resources and services.